createdAt,value
2017-12-21T00:02:13.328Z,19.97
2017-12-21T00:04:40.816Z,18.57
2017-12-21T00:07:08.279Z,20.90
2017-12-21T00:09:36.224Z,17.27
2017-12-21T00:12:03.693Z,19.83
2017-12-21T00:14:31.158Z,16.13
2017-12-21T00:16:58.622Z,18.33
2017-12-21T00:19:26.100Z,17.87
2017-12-21T00:21:53.561Z,16.43
2017-12-21T00:24:21.050Z,21.33
2017-12-21T00:26:48.509Z,16.13
2017-12-21T00:29:16.001Z,16.27
2017-12-21T00:31:43.996Z,16.90
2017-12-21T00:34:11.458Z,17.77
2017-12-21T00:36:38.972Z,14.47
2017-12-21T00:39:06.440Z,15.60
2017-12-21T00:41:33.911Z,15.00
2017-12-21T00:44:01.376Z,12.13
2017-12-21T00:46:28.867Z,14.00
2017-12-21T00:48:56.323Z,12.83
2017-12-21T00:51:23.797Z,11.90
2017-12-21T00:53:51.269Z,10.67
2017-12-21T00:56:18.743Z,13.57
2017-12-21T00:58:46.201Z,11.10
2017-12-21T01:01:13.667Z,11.43
2017-12-21T01:03:41.136Z,11.03
2017-12-21T01:06:08.625Z,11.03
2017-12-21T01:08:36.083Z,11.53
2017-12-21T01:11:03.539Z,11.07
2017-12-21T01:13:31.015Z,11.63
2017-12-21T01:15:58.474Z,10.93
2017-12-21T01:18:25.952Z,12.30
2017-12-21T01:20:53.416Z,9.70
2017-12-21T01:23:20.886Z,10.63
2017-12-21T01:25:48.353Z,11.80
2017-12-21T01:28:15.835Z,10.23
2017-12-21T01:30:43.294Z,11.47
2017-12-21T01:33:10.791Z,11.13
2017-12-21T01:35:38.265Z,11.10
2017-12-21T01:38:05.724Z,9.13
2017-12-21T01:40:33.215Z,11.27
2017-12-21T01:43:00.693Z,11.57
2017-12-21T01:45:28.151Z,10.07
2017-12-21T01:47:55.615Z,13.13
2017-12-21T01:50:23.085Z,10.43
2017-12-21T01:52:50.545Z,10.20
2017-12-21T01:55:18.017Z,11.13
2017-12-21T01:57:45.486Z,10.90
2017-12-21T02:00:12.963Z,11.30
2017-12-21T02:02:40.419Z,9.57
2017-12-21T02:05:07.881Z,11.03
2017-12-21T02:07:35.343Z,9.87
2017-12-21T02:10:02.806Z,9.87
2017-12-21T02:12:30.261Z,11.20
2017-12-21T02:14:57.760Z,11.13
2017-12-21T02:17:25.264Z,10.83
2017-12-21T02:19:52.734Z,10.97
2017-12-21T02:22:20.205Z,10.13
2017-12-21T02:24:47.664Z,10.63
2017-12-21T02:27:15.140Z,11.50
2017-12-21T02:29:42.614Z,11.07
2017-12-21T02:32:10.093Z,10.33
2017-12-21T02:34:37.558Z,10.43
2017-12-21T02:37:05.023Z,10.73
2017-12-21T02:39:32.473Z,10.07
2017-12-21T02:41:59.969Z,12.20
2017-12-21T02:44:27.433Z,11.03
2017-12-21T02:46:54.890Z,14.00
2017-12-21T02:49:22.398Z,10.20
2017-12-21T02:51:49.872Z,11.40
2017-12-21T02:54:17.343Z,13.80
2017-12-21T02:56:44.869Z,10.90
2017-12-21T02:59:12.366Z,11.83
2017-12-21T03:01:39.827Z,11.50
2017-12-21T03:04:07.297Z,14.93
2017-12-21T03:06:34.765Z,11.33
2017-12-21T03:09:02.243Z,11.53
2017-12-21T03:11:29.698Z,12.37
2017-12-21T03:13:57.201Z,12.77
2017-12-21T03:16:24.663Z,11.00
2017-12-21T03:18:52.152Z,10.73
2017-12-21T03:21:27.038Z,12.47
2017-12-21T03:23:55.994Z,12.73
2017-12-21T03:26:23.449Z,13.27
2017-12-21T03:28:50.933Z,11.57
2017-12-21T03:31:18.428Z,15.07
2017-12-21T03:33:45.905Z,13.47
2017-12-21T03:36:13.371Z,10.70
2017-12-21T03:38:40.864Z,12.47
2017-12-21T03:41:08.340Z,12.57
2017-12-21T03:43:35.806Z,12.70
2017-12-21T03:46:03.275Z,12.33
2017-12-21T03:48:30.734Z,12.70
2017-12-21T03:50:58.212Z,12.30
2017-12-21T03:53:25.677Z,11.47
2017-12-21T03:55:53.138Z,11.43
2017-12-21T03:58:20.594Z,10.97
2017-12-21T04:00:48.181Z,13.53
2017-12-21T04:03:15.630Z,10.10
2017-12-21T04:05:43.093Z,9.83
2017-12-21T04:08:10.566Z,10.03
2017-12-21T04:10:38.027Z,11.43
2017-12-21T04:13:05.490Z,9.20
2017-12-21T04:15:32.949Z,10.10
2017-12-21T04:18:00.444Z,9.70
2017-12-21T04:20:27.893Z,8.20
2017-12-21T04:22:55.374Z,9.30
2017-12-21T04:25:22.832Z,11.47
2017-12-21T04:27:50.330Z,11.57
2017-12-21T04:30:17.799Z,10.00
2017-12-21T04:32:45.304Z,10.77
2017-12-21T04:35:12.774Z,9.67
2017-12-21T04:37:40.230Z,10.57
2017-12-21T04:40:07.684Z,7.70
2017-12-21T04:42:35.149Z,8.43
2017-12-21T04:45:02.613Z,7.80
2017-12-21T04:47:30.062Z,6.27
2017-12-21T04:49:57.542Z,7.87
2017-12-21T04:52:24.994Z,6.53
2017-12-21T04:54:52.511Z,7.17
2017-12-21T04:57:20.016Z,7.30
2017-12-21T04:59:47.503Z,6.83
2017-12-21T05:02:14.955Z,8.67
2017-12-21T05:04:42.419Z,7.57
2017-12-21T05:07:09.968Z,6.63
2017-12-21T05:09:37.432Z,5.70
2017-12-21T05:12:05.114Z,7.67
2017-12-21T05:14:32.585Z,8.83
2017-12-21T05:17:00.058Z,6.33
2017-12-21T05:19:27.519Z,7.27
2017-12-21T05:21:54.984Z,6.83
2017-12-21T05:24:22.448Z,6.13
2017-12-21T05:26:49.917Z,7.30
2017-12-21T05:29:17.368Z,7.00
2017-12-21T05:31:44.868Z,7.07
2017-12-21T05:34:12.358Z,8.67
2017-12-21T05:36:39.850Z,8.07
2017-12-21T05:39:07.316Z,14.67
2017-12-21T05:41:34.785Z,15.03
2017-12-21T05:44:02.284Z,14.37
2017-12-21T05:46:29.768Z,19.43
2017-12-21T05:48:57.234Z,16.07
2017-12-21T05:51:24.693Z,14.10
2017-12-21T05:53:52.169Z,17.33
2017-12-21T05:56:19.622Z,9.60
2017-12-21T05:58:47.087Z,8.53
2017-12-21T06:01:14.548Z,12.00
2017-12-21T06:03:42.184Z,6.57
2017-12-21T06:06:09.672Z,5.53
2017-12-21T06:08:37.127Z,6.73
2017-12-21T06:11:04.614Z,5.80
2017-12-21T06:13:32.088Z,5.60
2017-12-21T06:15:59.552Z,4.87
2017-12-21T06:18:27.005Z,6.93
2017-12-21T06:20:54.468Z,9.10
2017-12-21T06:23:21.930Z,6.80
2017-12-21T06:25:49.403Z,4.87
2017-12-21T06:28:16.893Z,4.77
2017-12-21T06:30:44.388Z,15.53
2017-12-21T06:33:11.949Z,4.97
2017-12-21T06:35:39.407Z,4.47
2017-12-21T06:38:06.889Z,4.57
2017-12-21T06:40:34.358Z,6.10
2017-12-21T06:43:01.929Z,7.90
2017-12-21T06:45:29.402Z,6.63
2017-12-21T06:47:56.874Z,4.57
2017-12-21T06:50:26.122Z,6.17
2017-12-21T06:52:53.654Z,5.60
2017-12-21T06:55:21.110Z,3.83
2017-12-21T06:57:48.567Z,3.50
2017-12-21T07:00:16.193Z,3.47
2017-12-21T07:02:43.746Z,3.37
2017-12-21T07:05:11.202Z,3.40
2017-12-21T07:07:38.665Z,2.93
2017-12-21T07:10:06.161Z,3.07
2017-12-21T07:12:33.730Z,2.90
2017-12-21T07:15:01.301Z,3.60
2017-12-21T07:17:28.762Z,30.57
2017-12-21T07:19:56.241Z,108.70
2017-12-21T07:22:23.691Z,13.87
2017-12-21T07:24:51.210Z,9.63
2017-12-21T07:27:18.661Z,8.87
2017-12-21T07:29:46.219Z,5.57
2017-12-21T07:32:13.678Z,4.10
2017-12-21T07:34:41.122Z,4.87
2017-12-21T07:37:08.590Z,9.77
2017-12-21T07:39:36.109Z,11.60
2017-12-21T07:42:03.587Z,5.57
2017-12-21T07:44:31.035Z,8.93
2017-12-21T07:46:58.508Z,8.10
2017-12-21T07:49:25.992Z,9.67
2017-12-21T07:51:53.478Z,13.00
2017-12-21T07:54:21.886Z,13.17
2017-12-21T07:56:50.271Z,9.47
2017-12-21T07:59:17.824Z,20.73
2017-12-21T08:01:45.290Z,6.07
2017-12-21T08:04:12.741Z,4.97
2017-12-21T08:06:40.235Z,6.33
2017-12-21T08:09:07.715Z,4.73
2017-12-21T08:11:35.285Z,4.97
2017-12-21T08:14:02.757Z,6.37
2017-12-21T08:16:30.321Z,5.27
2017-12-21T08:18:57.886Z,4.33
2017-12-21T08:21:25.357Z,5.60
2017-12-21T08:23:52.833Z,4.03
2017-12-21T08:26:20.408Z,3.77
2017-12-21T08:28:47.978Z,3.80
2017-12-21T08:31:15.427Z,3.57
2017-12-21T08:33:42.917Z,5.13
2017-12-21T08:36:10.388Z,10.10
2017-12-21T08:38:37.833Z,5.33
2017-12-21T08:41:05.298Z,3.67
2017-12-21T08:43:32.777Z,4.47
2017-12-21T08:46:00.275Z,3.27
2017-12-21T08:48:27.835Z,3.17
2017-12-21T08:50:55.318Z,3.70
2017-12-21T08:53:22.781Z,4.77
2017-12-21T08:55:50.366Z,4.07
2017-12-21T08:58:17.829Z,4.40
2017-12-21T09:00:45.321Z,7.80
2017-12-21T09:03:12.782Z,3.70
2017-12-21T09:05:40.233Z,2.90
2017-12-21T09:08:07.713Z,2.33
2017-12-21T09:10:35.177Z,3.20
2017-12-21T09:13:02.638Z,3.53
2017-12-21T09:15:30.090Z,3.83
2017-12-21T09:17:57.602Z,4.17
2017-12-21T09:20:25.074Z,3.67
2017-12-21T09:22:52.645Z,3.30
2017-12-21T09:25:20.133Z,3.30
2017-12-21T09:27:47.643Z,3.60
2017-12-21T09:30:15.149Z,3.43
2017-12-21T09:32:42.623Z,5.60
2017-12-21T09:35:10.091Z,5.27
2017-12-21T09:37:37.561Z,3.40
2017-12-21T09:40:05.040Z,3.77
2017-12-21T09:42:32.498Z,4.30
2017-12-21T09:44:59.981Z,5.77
2017-12-21T09:47:27.431Z,4.93
2017-12-21T09:49:54.902Z,4.30
2017-12-21T09:52:22.397Z,4.67
2017-12-21T09:54:49.972Z,4.07
2017-12-21T09:57:17.527Z,4.10
2017-12-21T09:59:45.019Z,4.37
2017-12-21T10:02:12.490Z,4.07
2017-12-21T10:04:40.581Z,3.97
2017-12-21T10:07:08.057Z,4.07
2017-12-21T10:09:35.525Z,3.33
2017-12-21T10:12:03.075Z,5.50
2017-12-21T10:14:30.539Z,3.77
2017-12-21T10:16:58.010Z,3.27
2017-12-21T10:19:25.481Z,2.90
2017-12-21T10:21:52.949Z,3.40
2017-12-21T10:24:20.443Z,3.27
2017-12-21T10:26:47.994Z,2.60
2017-12-21T10:29:15.460Z,3.80
2017-12-21T10:31:43.148Z,3.70
2017-12-21T10:34:10.617Z,4.83
2017-12-21T10:36:41.465Z,3.90
2017-12-21T10:39:08.989Z,3.70
2017-12-21T10:41:36.417Z,2.83
2017-12-21T10:44:03.902Z,3.17
2017-12-21T10:46:31.370Z,3.80
2017-12-21T10:48:58.840Z,3.40
2017-12-21T10:51:26.292Z,3.30
2017-12-21T10:53:53.868Z,2.83
2017-12-21T10:56:21.317Z,2.90
2017-12-21T10:58:48.812Z,5.63
2017-12-21T11:01:16.268Z,2.97
2017-12-21T11:03:43.755Z,2.87
2017-12-21T11:06:11.227Z,4.27
2017-12-21T11:08:38.790Z,3.40
2017-12-21T11:11:06.401Z,3.20
2017-12-21T11:13:33.939Z,2.77
2017-12-21T11:16:01.411Z,3.40
2017-12-21T11:18:28.876Z,4.97
2017-12-21T11:20:56.354Z,3.33
2017-12-21T11:23:23.815Z,2.60
2017-12-21T11:25:51.273Z,2.80
2017-12-21T11:28:18.727Z,3.23
2017-12-21T11:30:46.341Z,2.60
2017-12-21T11:33:13.814Z,2.57
2017-12-21T11:35:41.349Z,2.47
2017-12-21T11:38:08.854Z,2.57
2017-12-21T11:40:36.512Z,3.57
2017-12-21T11:43:03.970Z,3.20
2017-12-21T11:45:31.475Z,2.10
2017-12-21T11:47:58.948Z,4.17
2017-12-21T11:50:26.530Z,5.37
2017-12-21T11:52:54.017Z,2.50
2017-12-21T11:55:21.550Z,4.60
2017-12-21T11:57:49.029Z,3.23
2017-12-21T12:00:16.503Z,5.97
2017-12-21T12:02:44.091Z,5.40
2017-12-21T12:05:11.609Z,2.70
2017-12-21T12:07:39.117Z,4.43
2017-12-21T12:10:06.587Z,3.17
2017-12-21T12:12:34.366Z,2.70
2017-12-21T12:15:01.809Z,4.00
2017-12-21T12:17:29.297Z,4.40
2017-12-21T12:19:56.767Z,4.73
2017-12-21T12:22:24.225Z,3.60
2017-12-21T12:24:51.767Z,4.73
2017-12-21T12:27:19.398Z,3.90
2017-12-21T12:29:46.858Z,3.27
2017-12-21T12:32:14.319Z,3.50
2017-12-21T12:34:41.779Z,4.20
2017-12-21T12:37:09.234Z,3.30
2017-12-21T12:39:36.704Z,3.63
2017-12-21T12:42:04.211Z,3.33
2017-12-21T12:44:31.678Z,4.07
2017-12-21T12:46:59.149Z,4.20
2017-12-21T12:49:26.603Z,4.27
2017-12-21T12:51:54.057Z,4.07
2017-12-21T12:54:21.515Z,4.63
2017-12-21T12:56:49.032Z,6.50
2017-12-21T12:59:16.469Z,3.40
2017-12-21T13:01:43.926Z,4.37
2017-12-21T13:04:11.496Z,4.30
2017-12-21T13:06:39.020Z,4.90
2017-12-21T13:09:06.501Z,5.87
2017-12-21T13:11:33.954Z,5.10
2017-12-21T13:14:01.435Z,4.23
2017-12-21T13:16:28.925Z,4.67
2017-12-21T13:18:56.375Z,5.40
2017-12-21T13:21:23.833Z,4.93
2017-12-21T13:23:51.305Z,5.73
2017-12-21T13:26:18.765Z,5.60
2017-12-21T13:28:46.215Z,6.97
2017-12-21T13:31:13.682Z,5.50
2017-12-21T13:33:41.194Z,6.83
2017-12-21T13:36:08.650Z,8.63
2017-12-21T13:38:36.138Z,6.97
2017-12-21T13:41:03.602Z,6.73
2017-12-21T13:43:31.235Z,7.43
2017-12-21T13:45:58.710Z,6.13
2017-12-21T13:48:26.173Z,6.83
2017-12-21T13:50:53.639Z,7.93
2017-12-21T13:53:21.105Z,8.43
2017-12-21T13:55:48.641Z,8.17
2017-12-21T13:58:16.128Z,8.70
2017-12-21T14:00:43.670Z,7.83
2017-12-21T14:03:11.147Z,8.30
2017-12-21T14:05:38.713Z,8.27
2017-12-21T14:08:06.176Z,8.43
2017-12-21T14:10:33.739Z,7.47
2017-12-21T14:13:01.191Z,9.50
2017-12-21T14:15:28.656Z,8.93
2017-12-21T14:17:56.458Z,9.40
2017-12-21T14:20:23.913Z,9.13
2017-12-21T14:22:51.396Z,8.57
2017-12-21T14:25:18.893Z,8.50
2017-12-21T14:27:46.365Z,9.77
2017-12-21T14:30:13.809Z,8.77
2017-12-21T14:32:41.281Z,10.53
2017-12-21T14:35:08.727Z,9.23
2017-12-21T14:37:36.275Z,10.03
2017-12-21T14:40:03.737Z,10.73
2017-12-21T14:42:31.198Z,12.13
2017-12-21T14:44:58.760Z,11.53
2017-12-21T14:47:26.236Z,10.57
2017-12-21T14:49:53.721Z,11.97
2017-12-21T14:52:21.250Z,15.33
2017-12-21T14:54:48.744Z,11.53
2017-12-21T14:57:16.210Z,12.03
2017-12-21T14:59:43.806Z,12.00
2017-12-21T15:02:11.359Z,12.57
2017-12-21T15:04:38.829Z,13.43
2017-12-21T15:07:06.287Z,12.77
2017-12-21T15:09:33.818Z,15.03
2017-12-21T15:12:01.343Z,14.33
2017-12-21T15:14:28.809Z,13.53
2017-12-21T15:16:56.285Z,13.03
2017-12-21T15:19:23.865Z,13.90
2017-12-21T15:21:51.323Z,13.60
2017-12-21T15:24:18.781Z,12.57
2017-12-21T15:26:46.250Z,12.37
2017-12-21T15:29:13.749Z,13.27
2017-12-21T15:31:41.247Z,12.00
2017-12-21T15:34:08.712Z,13.57
2017-12-21T15:36:36.257Z,12.87
2017-12-21T15:39:03.726Z,11.80
2017-12-21T15:41:32.628Z,12.87
2017-12-21T15:44:00.091Z,13.37
2017-12-21T15:46:27.559Z,13.63
2017-12-21T15:48:55.056Z,14.23
2017-12-21T15:51:22.567Z,14.87
2017-12-21T15:53:50.042Z,15.50
2017-12-21T15:56:17.750Z,16.57
2017-12-21T15:58:45.351Z,16.93
2017-12-21T16:01:12.810Z,16.20
2017-12-21T16:03:40.274Z,18.03
2017-12-21T16:06:07.739Z,16.87
2017-12-21T16:08:35.208Z,18.70
2017-12-21T16:11:02.674Z,18.53
2017-12-21T16:13:30.145Z,17.77
2017-12-21T16:15:57.634Z,17.37
2017-12-21T16:18:25.204Z,16.93
2017-12-21T16:20:52.686Z,17.13
2017-12-21T16:23:20.143Z,17.67
2017-12-21T16:25:47.716Z,16.50
2017-12-21T16:28:15.195Z,17.37
2017-12-21T16:30:42.661Z,16.40
2017-12-21T16:33:10.115Z,19.57
2017-12-21T16:35:37.594Z,15.70
2017-12-21T16:38:05.049Z,18.43
2017-12-21T16:40:32.516Z,14.73
2017-12-21T16:43:00.191Z,16.57
2017-12-21T16:45:27.727Z,16.63
2017-12-21T16:47:55.192Z,16.27
2017-12-21T16:50:22.645Z,17.57
2017-12-21T16:52:50.126Z,15.53
2017-12-21T16:55:17.661Z,17.53
2017-12-21T16:57:45.158Z,16.57
2017-12-21T17:00:12.622Z,17.27
2017-12-21T17:02:40.108Z,17.83
2017-12-21T17:05:07.574Z,21.90
2017-12-21T17:07:35.054Z,19.50
2017-12-21T17:10:02.597Z,20.73
2017-12-21T17:12:30.051Z,19.33
2017-12-21T17:14:57.558Z,19.20
2017-12-21T17:17:25.022Z,21.43
2017-12-21T17:19:52.511Z,17.07
2017-12-21T17:22:19.975Z,18.93
2017-12-21T17:24:47.443Z,18.10
2017-12-21T17:27:14.909Z,21.33
2017-12-21T17:29:42.481Z,20.70
2017-12-21T17:32:10.057Z,21.07
2017-12-21T17:34:37.578Z,20.27
2017-12-21T17:37:05.186Z,20.43
2017-12-21T17:39:32.761Z,19.30
2017-12-21T17:42:00.267Z,20.53
2017-12-21T17:44:27.724Z,21.03
2017-12-21T17:46:55.320Z,20.47
2017-12-21T17:49:22.819Z,24.53
2017-12-21T17:51:50.327Z,19.17
2017-12-21T17:54:17.786Z,18.43
2017-12-21T17:56:45.437Z,19.70
2017-12-21T17:59:12.954Z,18.70
2017-12-21T18:01:40.740Z,18.13
2017-12-21T18:04:08.218Z,18.03
2017-12-21T18:06:35.721Z,23.50
2017-12-21T18:09:03.247Z,19.90
2017-12-21T18:11:30.712Z,20.90
2017-12-21T18:13:58.299Z,21.43
2017-12-21T18:16:25.727Z,18.63
2017-12-21T18:18:53.374Z,18.13
2017-12-21T18:21:20.847Z,21.57
2017-12-21T18:23:48.377Z,18.97
2017-12-21T18:26:15.890Z,22.87
2017-12-21T18:28:43.390Z,19.93
2017-12-21T18:31:10.895Z,24.53
2017-12-21T18:33:38.355Z,22.17
2017-12-21T18:36:05.831Z,19.87
2017-12-21T18:38:33.332Z,20.50
2017-12-21T18:41:00.879Z,20.70
2017-12-21T18:43:28.357Z,19.70
2017-12-21T18:45:55.886Z,19.83
2017-12-21T18:48:23.351Z,19.60
2017-12-21T18:50:50.921Z,19.57
2017-12-21T18:53:18.382Z,20.03
2017-12-21T18:55:45.853Z,19.03
2017-12-21T18:58:13.427Z,18.40
2017-12-21T19:00:40.887Z,17.40
2017-12-21T19:03:08.444Z,21.20
2017-12-21T19:05:35.957Z,19.03
2017-12-21T19:08:03.501Z,19.00
2017-12-21T19:10:31.323Z,21.60
2017-12-21T19:12:58.850Z,21.63
2017-12-21T19:15:26.305Z,22.83
2017-12-21T19:17:53.824Z,19.03
2017-12-21T19:20:21.381Z,24.27
2017-12-21T19:22:48.931Z,28.57
2017-12-21T19:25:16.444Z,18.63
2017-12-21T19:27:43.956Z,20.93
2017-12-21T19:30:11.438Z,25.00
2017-12-21T19:32:38.896Z,21.97
2017-12-21T19:35:06.477Z,15.60
2017-12-21T19:37:34.002Z,15.00
2017-12-21T19:40:01.582Z,16.93
2017-12-21T19:42:29.114Z,18.13
2017-12-21T19:44:56.637Z,17.00
2017-12-21T19:47:26.774Z,17.87
2017-12-21T19:49:54.266Z,17.97
2017-12-21T19:52:21.905Z,18.70
2017-12-21T19:54:49.447Z,17.17
2017-12-21T19:57:16.964Z,21.93
2017-12-21T19:59:44.506Z,20.23
2017-12-21T20:02:11.988Z,19.67
2017-12-21T20:04:39.504Z,22.57
2017-12-21T20:07:06.973Z,20.30
2017-12-21T20:09:34.528Z,21.63
2017-12-21T20:12:02.044Z,18.80
2017-12-21T20:14:29.807Z,20.33
2017-12-21T20:16:57.323Z,21.70
2017-12-21T20:19:24.892Z,17.87
2017-12-21T20:21:52.367Z,17.10
2017-12-21T20:24:19.995Z,17.47
2017-12-21T20:26:47.820Z,18.17
2017-12-21T20:29:15.379Z,18.03
2017-12-21T20:31:43.287Z,18.80
2017-12-21T20:34:10.810Z,20.20
2017-12-21T20:36:38.316Z,18.37
2017-12-21T20:39:05.836Z,21.00
2017-12-21T20:41:33.389Z,18.87
2017-12-21T20:44:00.921Z,20.20
2017-12-21T20:46:28.492Z,17.90
2017-12-21T20:48:56.022Z,19.73
2017-12-21T20:51:23.566Z,22.87
2017-12-21T20:53:51.122Z,24.20
2017-12-21T20:56:18.588Z,21.10
2017-12-21T20:58:46.119Z,20.77
2017-12-21T21:01:13.646Z,22.10
2017-12-21T21:03:41.184Z,22.60
2017-12-21T21:06:08.736Z,18.20
2017-12-21T21:08:36.244Z,15.67
2017-12-21T21:11:03.811Z,17.57
2017-12-21T21:13:31.344Z,20.10
2017-12-21T21:15:58.835Z,19.87
2017-12-21T21:18:26.352Z,18.23
2017-12-21T21:20:53.888Z,17.97
2017-12-21T21:23:21.398Z,20.30
2017-12-21T21:25:48.922Z,21.80
2017-12-21T21:28:16.445Z,20.90
2017-12-21T21:30:43.968Z,20.27
2017-12-21T21:33:11.576Z,18.43
2017-12-21T21:35:39.133Z,22.70
2017-12-21T21:38:06.727Z,21.30
2017-12-21T21:40:34.237Z,19.57
2017-12-21T21:43:01.755Z,21.50
2017-12-21T21:45:29.265Z,21.07
2017-12-21T21:47:56.804Z,23.87
2017-12-21T21:50:24.269Z,23.17
2017-12-21T21:52:51.896Z,21.30
2017-12-21T21:55:19.443Z,22.53
2017-12-21T21:57:47.020Z,24.03
2017-12-21T22:00:14.534Z,23.60
2017-12-21T22:02:42.060Z,21.20
2017-12-21T22:05:09.585Z,24.00
2017-12-21T22:07:37.108Z,21.07
2017-12-21T22:10:04.623Z,20.93
2017-12-21T22:12:32.153Z,33.20
2017-12-21T22:14:59.674Z,23.20
2017-12-21T22:17:27.229Z,23.13
2017-12-21T22:19:54.762Z,29.27
2017-12-21T22:22:22.218Z,24.83
2017-12-21T22:24:49.768Z,30.67
2017-12-21T22:27:17.283Z,29.33
2017-12-21T22:29:44.772Z,27.53
2017-12-21T22:32:12.249Z,25.13
2017-12-21T22:34:40.063Z,31.27
2017-12-21T22:37:07.585Z,26.10
2017-12-21T22:39:35.063Z,29.43
2017-12-21T22:42:02.558Z,32.57
2017-12-21T22:44:30.498Z,27.93
2017-12-21T22:46:58.000Z,30.30
2017-12-21T22:49:25.473Z,26.40
2017-12-21T22:51:52.992Z,28.90
2017-12-21T22:54:20.499Z,27.93
2017-12-21T22:56:48.004Z,28.83
2017-12-21T22:59:15.547Z,27.13
2017-12-21T23:01:43.092Z,26.57
2017-12-21T23:04:10.608Z,29.60
2017-12-21T23:06:38.123Z,29.87
2017-12-21T23:09:05.643Z,30.27
2017-12-21T23:11:33.114Z,27.73
2017-12-21T23:14:00.634Z,25.43
2017-12-21T23:16:28.161Z,28.90
2017-12-21T23:18:55.708Z,28.47
2017-12-21T23:21:23.209Z,27.07
2017-12-21T23:23:50.743Z,38.93
2017-12-21T23:26:18.247Z,35.20
2017-12-21T23:28:45.725Z,27.87
2017-12-21T23:31:13.216Z,29.80
2017-12-21T23:33:40.683Z,32.00
2017-12-21T23:36:08.155Z,32.43
2017-12-21T23:38:35.710Z,26.53
2017-12-21T23:41:03.188Z,31.33
2017-12-21T23:43:30.703Z,39.50
2017-12-21T23:45:58.217Z,32.97
2017-12-21T23:48:25.772Z,29.47
2017-12-21T23:50:53.365Z,30.83
2017-12-21T23:53:20.856Z,31.37
2017-12-21T23:55:48.330Z,29.47
2017-12-21T23:58:15.825Z,26.27
